Time;durP1;ratioP1;P1;durP2;ratioP2;P2;SDS_P1;SDS_P2;PMS_P1;PMS_P2;Temp;Humidity;BMP_temperature;BMP_pressure;BME280_temperature;BME280_humidity;BME280_pressure;Samples;Min_cycle;Max_cycle;Signal;HPM_P1;HPM_P2
2023/05/14 00:01:45;;;;;;;32.40;22.70;;;;;;;7.01;66.46;100446.52;217266;1259;140068;-68
2023/05/14 00:06:49;;;;;;;41.90;24.90;;;;;;;6.96;66.37;100448.92;219197;1260;139652;-68
2023/05/14 00:11:52;;;;;;;47.10;27.70;;;;;;;6.87;66.52;100450.20;220059;1259;139733;-68
2023/05/14 00:16:55;;;;;;;40.60;28.20;;;;;;;6.88;67.33;100448.01;218760;1263;140045;-68
2023/05/14 00:21:57;;;;;;;38.60;25.50;;;;;;;6.88;66.90;100445.11;218352;1259;140551;-67
2023/05/14 00:27:00;;;;;;;32.10;22.20;;;;;;;6.84;67.09;100444.55;217350;1260;141580;-66
2023/05/14 00:32:03;;;;;;;33.10;20.60;;;;;;;6.76;66.80;100440.01;217859;1259;141740;-68
2023/05/14 00:37:06;;;;;;;31.20;24.20;;;;;;;6.61;67.14;100439.86;217360;1259;139735;-68
2023/05/14 00:42:09;;;;;;;31.10;22.10;;;;;;;6.50;67.63;100432.45;217783;1260;141428;-67
2023/05/14 00:47:14;;;;;;;27.60;22.10;;;;;;;6.42;67.72;100430.74;217380;1261;139871;-67
2023/05/14 00:52:18;;;;;;;31.50;21.30;;;;;;;6.31;67.90;100432.84;217880;1260;140925;-67
2023/05/14 00:57:22;;;;;;;34.90;22.10;;;;;;;6.21;68.46;100431.64;217546;1261;142175;-67
2023/05/14 01:02:25;;;;;;;31.20;24.10;;;;;;;6.13;68.76;100435.07;218032;1262;140826;-67
2023/05/14 01:07:53;;;;;;;30.50;22.10;;;;;;;6.07;68.77;100436.08;218481;1258;140775;-68
2023/05/14 01:13:17;;;;;;;33.60;21.40;;;;;;;6.04;69.06;100437.50;217949;1260;231277;-67
2023/05/14 01:18:22;;;;;;;29.80;18.50;;;;;;;6.14;69.86;100436.54;218065;1259;140145;-69
2023/05/14 01:23:24;;;;;;;31.30;20.80;;;;;;;6.15;69.27;100434.55;217743;1263;140082;-68
2023/05/14 01:28:34;;;;;;;26.00;19.60;;;;;;;6.04;69.10;100425.66;217946;1263;141817;-67
2023/05/14 01:33:41;;;;;;;29.00;20.20;;;;;;;5.94;69.27;100418.63;217668;1258;140195;-66
2023/05/14 01:38:46;;;;;;;27.20;19.00;;;;;;;5.91;69.54;100412.64;218446;1259;140049;-66
2023/05/14 01:43:50;;;;;;;27.00;17.80;;;;;;;5.87;69.67;100408.02;219485;1260;141357;-66
2023/05/14 01:48:53;;;;;;;32.70;18.00;;;;;;;5.80;69.68;100404.24;219095;1262;140481;-66
2023/05/14 01:53:57;;;;;;;28.10;18.30;;;;;;;5.82;70.22;100399.08;220079;1262;139817;-66
2023/05/14 01:59:01;;;;;;;24.20;16.80;;;;;;;5.85;70.27;100397.58;219156;1262;140681;-67
2023/05/14 02:04:04;;;;;;;22.00;15.20;;;;;;;5.82;70.24;100397.45;218841;1259;139603;-65
2023/05/14 02:09:07;;;;;;;25.60;18.80;;;;;;;5.78;70.30;100392.34;218370;1263;210348;-65
2023/05/14 02:14:11;;;;;;;26.60;19.60;;;;;;;5.70;70.58;100395.19;218505;1260;139617;-68
2023/05/14 02:19:13;;;;;;;26.30;16.30;;;;;;;5.74;70.98;100388.04;216894;1263;139923;-64
2023/05/14 02:24:16;;;;;;;30.40;20.40;;;;;;;5.68;70.87;100398.14;218649;1260;140365;-65
2023/05/14 02:29:21;;;;;;;31.00;21.00;;;;;;;5.64;71.19;100389.75;217682;1261;139666;-64
2023/05/14 02:34:24;;;;;;;30.70;18.50;;;;;;;5.63;71.02;100392.05;217151;1265;139692;-64
2023/05/14 02:39:28;;;;;;;29.30;19.20;;;;;;;5.54;71.10;100388.52;217489;1263;139892;-66
2023/05/14 02:44:31;;;;;;;33.20;18.60;;;;;;;5.51;71.28;100380.97;217392;1263;141410;-65
2023/05/14 02:49:35;;;;;;;24.30;16.60;;;;;;;5.47;71.32;100376.38;217267;1263;140047;-69
2023/05/14 02:54:37;;;;;;;24.20;17.70;;;;;;;5.43;71.42;100376.83;217059;1261;140521;-69
2023/05/14 02:59:39;;;;;;;26.50;18.30;;;;;;;5.38;71.73;100371.75;219648;1260;140701;-71
2023/05/14 03:04:42;;;;;;;30.90;16.70;;;;;;;5.40;71.70;100373.85;217504;1263;139504;-69
2023/05/14 03:09:46;;;;;;;26.10;17.60;;;;;;;5.38;71.87;100371.39;217419;1263;139813;-66
2023/05/14 03:14:49;;;;;;;24.90;18.00;;;;;;;5.41;72.15;100369.88;218484;1260;140143;-66
2023/05/14 03:19:53;;;;;;;26.30;18.40;;;;;;;5.46;72.50;100365.74;217453;1260;141034;-67
2023/05/14 03:24:56;;;;;;;18.00;16.10;;;;;;;5.52;72.82;100362.23;217814;1260;140783;-66
2023/05/14 03:30:00;;;;;;;19.90;14.50;;;;;;;5.71;73.61;100360.40;217581;1263;141086;-67
2023/05/14 03:35:04;;;;;;;20.90;15.70;;;;;;;5.93;73.66;100359.41;218047;1263;140245;-66
2023/05/14 03:40:08;;;;;;;22.40;17.60;;;;;;;6.13;74.00;100361.36;217970;1261;139682;-66
2023/05/14 03:45:11;;;;;;;24.20;17.10;;;;;;;6.53;73.96;100361.09;219666;1259;139742;-66
2023/05/14 03:50:13;;;;;;;21.80;16.20;;;;;;;7.34;73.81;100354.27;218600;1261;211577;-66
2023/05/14 03:55:18;;;;;;;22.10;16.20;;;;;;;8.05;72.98;100351.73;218788;1260;139549;-67
2023/05/14 04:00:20;;;;;;;21.80;16.80;;;;;;;8.33;72.71;100354.39;219502;1259;141813;-66
2023/05/14 04:05:24;;;;;;;24.40;16.40;;;;;;;8.78;72.57;100350.29;219112;1261;139810;-67
2023/05/14 04:10:28;;;;;;;26.80;18.30;;;;;;;9.24;72.41;100346.63;218375;1260;140586;-67
2023/05/14 04:15:32;;;;;;;22.60;16.90;;;;;;;9.47;72.14;100345.18;218284;1258;141031;-67
2023/05/14 04:20:35;;;;;;;27.60;19.30;;;;;;;10.12;72.20;100344.11;218475;1260;139692;-67
2023/05/14 04:25:39;;;;;;;23.50;17.30;;;;;;;10.24;71.97;100348.38;218530;1258;142252;-67
2023/05/14 04:30:44;;;;;;;27.40;18.70;;;;;;;10.15;72.00;100351.63;217350;1261;140189;-67
2023/05/14 04:35:47;;;;;;;27.00;18.20;;;;;;;10.07;71.75;100347.75;218761;1260;140368;-67
2023/05/14 04:40:51;;;;;;;18.70;15.70;;;;;;;9.99;71.94;100344.14;218019;1260;140018;-67
2023/05/14 04:45:54;;;;;;;22.50;17.60;;;;;;;9.96;72.26;100344.55;217927;1261;140953;-66
2023/05/14 04:50:59;;;;;;;17.40;13.20;;;;;;;9.95;72.11;100340.67;217531;1260;139627;-65
2023/05/14 04:56:03;;;;;;;14.00;12.30;;;;;;;9.90;71.76;100344.11;217403;1261;142335;-66
2023/05/14 05:01:07;;;;;;;27.50;16.20;;;;;;;9.86;72.07;100344.48;217588;1263;139890;-66
2023/05/14 05:06:11;;;;;;;22.90;16.00;;;;;;;9.91;72.47;100340.81;217173;1261;140869;-66
2023/05/14 05:11:15;;;;;;;27.90;19.20;;;;;;;10.00;72.57;100335.88;217843;1260;140019;-65
2023/05/14 05:16:18;;;;;;;17.80;16.00;;;;;;;10.11;72.59;100329.68;217294;1262;140444;-66
2023/05/14 05:21:22;;;;;;;21.50;16.60;;;;;;;10.25;73.08;100333.42;218823;1260;140722;-66
2023/05/14 05:26:26;;;;;;;20.10;15.90;;;;;;;10.39;72.99;100334.98;217361;1260;140188;-66
2023/05/14 05:31:29;;;;;;;20.10;17.00;;;;;;;10.57;72.92;100334.81;219453;1262;141920;-67
2023/05/14 05:36:33;;;;;;;23.20;17.00;;;;;;;10.79;72.93;100333.27;219099;1259;140438;-67
2023/05/14 05:41:35;;;;;;;22.40;18.10;;;;;;;11.07;72.32;100328.69;220123;1260;140721;-67
2023/05/14 05:46:38;;;;;;;13.60;12.00;;;;;;;11.46;71.79;100328.52;218101;1257;140761;-66
2023/05/14 05:51:41;;;;;;;13.10;11.20;;;;;;;11.92;71.25;100328.75;220011;1259;140698;-67
2023/05/14 05:56:44;;;;;;;17.10;11.70;;;;;;;12.25;70.62;100319.95;220039;1258;140121;-67
2023/05/14 06:01:47;;;;;;;15.60;11.50;;;;;;;12.68;70.22;100314.83;219137;1259;140053;-67
2023/05/14 06:06:49;;;;;;;14.00;11.80;;;;;;;13.41;69.48;100311.38;217843;1258;141053;-66
2023/05/14 06:11:52;;;;;;;10.70;9.60;;;;;;;14.54;68.43;100313.75;217194;1259;140803;-66
2023/05/14 06:16:56;;;;;;;14.70;9.90;;;;;;;16.63;66.63;100308.09;217383;1262;140825;-67
2023/05/14 06:21:58;;;;;;;9.60;7.50;;;;;;;17.31;64.64;100311.24;217702;1259;140155;-66
2023/05/14 06:27:00;;;;;;;6.50;5.80;;;;;;;17.51;62.29;100316.36;218266;1259;139752;-67
2023/05/14 06:32:03;;;;;;;7.80;6.60;;;;;;;17.53;60.32;100319.97;217261;1260;140044;-67
2023/05/14 06:37:09;;;;;;;9.30;6.00;;;;;;;17.45;58.00;100324.10;218340;1259;139831;-67
2023/05/14 06:42:13;;;;;;;12.80;6.30;;;;;;;17.94;57.21;100321.39;217262;1260;139473;-67
2023/05/14 06:47:19;;;;;;;11.30;6.90;;;;;;;18.57;56.18;100317.44;217858;1260;205732;-67
2023/05/14 06:52:22;;;;;;;10.70;7.70;;;;;;;19.44;54.64;100308.41;218601;1259;139395;-67
2023/05/14 06:57:24;;;;;;;5.30;4.80;;;;;;;20.72;53.50;100297.67;217140;1260;141010;-67
2023/05/14 07:02:27;;;;;;;3.90;3.60;;;;;;;22.10;50.45;100287.85;218105;1258;139283;-67
2023/05/14 07:07:30;;;;;;;13.70;4.90;;;;;;;23.35;47.65;100284.27;217760;1258;139778;-67
2023/05/14 07:12:33;;;;;;;6.40;4.20;;;;;;;24.26;45.80;100279.81;218534;1258;139206;-67
2023/05/14 07:17:36;;;;;;;4.60;4.00;;;;;;;24.69;44.28;100280.02;217175;1259;138928;-66
2023/05/14 07:22:40;;;;;;;10.90;3.90;;;;;;;25.31;43.25;100275.34;217435;1258;140960;-65
2023/05/14 07:27:43;;;;;;;4.00;3.60;;;;;;;25.65;41.67;100268.88;217241;1260;139195;-66
2023/05/14 07:32:46;;;;;;;7.60;3.50;;;;;;;25.62;39.76;100265.41;218530;1258;138885;-65
2023/05/14 07:37:50;;;;;;;7.30;3.70;;;;;;;24.96;38.36;100264.13;217599;1259;139998;-65
2023/05/14 07:42:54;;;;;;;8.20;4.40;;;;;;;24.25;37.98;100253.69;217178;1259;139607;-65
2023/05/14 07:47:57;;;;;;;3.70;3.40;;;;;;;24.16;38.28;100255.15;219258;1258;139579;-66
2023/05/14 07:53:01;;;;;;;5.80;4.00;;;;;;;24.31;38.13;100246.71;220154;1258;139517;-67
2023/05/14 07:58:03;;;;;;;7.20;4.40;;;;;;;24.29;37.58;100253.45;220098;1258;139228;-66
2023/05/14 08:03:06;;;;;;;3.90;3.60;;;;;;;24.25;37.48;100256.25;219484;1258;139964;-66
2023/05/14 08:08:11;;;;;;;9.30;4.70;;;;;;;24.04;37.11;100255.80;218537;1258;139494;-65
2023/05/14 08:13:15;;;;;;;3.60;3.20;;;;;;;23.63;36.44;100251.63;217997;1259;140198;-65
2023/05/14 08:18:17;;;;;;;4.00;3.30;;;;;;;22.78;35.71;100252.13;218473;1259;139921;-66
2023/05/14 08:23:21;;;;;;;4.60;3.50;;;;;;;22.33;36.58;100243.74;217647;1262;140202;-66
2023/05/14 08:28:24;;;;;;;10.20;4.40;;;;;;;22.00;36.68;100237.38;217625;1259;139097;-66
2023/05/14 08:33:27;;;;;;;5.20;3.70;;;;;;;21.90;37.16;100239.55;217394;1259;139538;-66
2023/05/14 08:38:30;;;;;;;4.10;3.10;;;;;;;21.81;37.06;100239.21;217918;1258;140796;-65
2023/05/14 08:43:57;;;;;;;3.80;3.50;;;;;;;22.04;37.24;100230.27;217919;1259;140392;-66
2023/05/14 08:49:24;;;;;;;6.70;3.40;;;;;;;21.86;36.74;100226.32;217110;1259;139543;-66
2023/05/14 08:54:28;;;;;;;6.40;4.10;;;;;;;21.90;37.25;100223.71;218085;1260;139802;-69
2023/05/14 08:59:31;;;;;;;6.70;3.50;;;;;;;22.18;37.76;100228.00;218091;1259;139702;-66
2023/05/14 09:04:35;;;;;;;3.60;3.30;;;;;;;22.15;36.17;100223.86;217224;1259;925281;-65
2023/05/14 09:09:40;;;;;;;4.20;3.60;;;;;;;21.85;36.93;100216.51;217332;1259;139637;-65
2023/05/14 09:14:44;;;;;;;7.40;3.40;;;;;;;22.07;37.13;100212.13;217365;1258;139117;-65
2023/05/14 09:19:51;;;;;;;5.90;4.30;;;;;;;22.35;37.20;100207.53;217516;1259;140035;-66
2023/05/14 09:25:10;;;;;;;3.20;3.00;;;;;;;22.79;37.47;100202.64;218599;1259;139377;-67
2023/05/14 09:30:13;;;;;;;5.90;4.10;;;;;;;23.13;37.11;100190.38;217452;1260;138934;-66
2023/05/14 09:35:24;;;;;;;4.80;3.80;;;;;;;23.14;36.69;100182.45;219287;1258;138901;-66
2023/05/14 09:40:27;;;;;;;5.40;3.10;;;;;;;22.94;36.44;100176.13;220090;1258;140973;-68
2023/05/14 09:45:31;;;;;;;3.50;3.20;;;;;;;22.95;36.94;100170.73;220132;1258;138974;-67
2023/05/14 09:50:41;;;;;;;5.50;3.70;;;;;;;23.01;36.30;100163.56;219092;1258;140455;-67
2023/05/14 09:55:44;;;;;;;3.90;3.60;;;;;;;23.33;36.62;100156.11;218186;1261;140305;-66
2023/05/14 10:00:50;;;;;;;4.60;3.80;;;;;;;23.46;36.00;100144.07;219121;1257;138857;-66
2023/05/14 10:05:59;;;;;;;6.40;2.70;;;;;;;23.37;36.30;100136.06;218390;1259;139435;-66
2023/05/14 10:11:07;;;;;;;2.10;1.70;;;;;;;23.10;35.52;100141.27;217425;1259;139974;-66
2023/05/14 10:16:21;;;;;;;2.40;2.10;;;;;;;22.81;35.43;100132.35;218914;1257;140229;-67
2023/05/14 10:21:25;;;;;;;2.20;2.00;;;;;;;22.91;36.01;100121.44;217153;1259;140151;-66
2023/05/14 10:26:29;;;;;;;2.30;2.10;;;;;;;22.72;36.00;100112.11;218004;1259;139308;-66
2023/05/14 10:31:53;;;;;;;2.90;2.70;;;;;;;22.56;36.23;100106.25;217440;1262;139136;-67
2023/05/14 10:37:01;;;;;;;2.60;2.40;;;;;;;21.94;36.48;100097.52;217824;1259;139607;-67
2023/05/14 10:42:07;;;;;;;2.60;2.40;;;;;;;21.62;36.88;100091.95;217475;1259;140253;-69
2023/05/14 10:47:10;;;;;;;2.60;2.40;;;;;;;21.35;37.12;100093.07;217333;1259;139591;-69
2023/05/14 10:52:16;;;;;;;2.50;2.30;;;;;;;21.10;37.44;100085.48;216992;1262;139234;-68
2023/05/14 10:57:20;;;;;;;2.10;2.00;;;;;;;21.13;37.78;100076.37;217483;1259;141583;-68
2023/05/14 11:02:28;;;;;;;2.40;2.20;;;;;;;21.51;38.01;100071.04;218290;1258;139116;-67
2023/05/14 11:07:34;;;;;;;4.70;2.10;;;;;;;22.09;38.03;100055.10;218196;1258;139424;-68
2023/05/14 11:12:39;;;;;;;;;;;;;;;22.33;37.69;100050.81;217279;1259;139695;-67
2023/05/14 11:17:44;;;;;;;1.60;1.50;;;;;;;22.06;37.51;100065.45;217735;1259;125840;-67
2023/05/14 11:22:50;;;;;;;2.30;1.70;;;;;;;22.11;37.46;100058.61;217925;1258;139183;-68
2023/05/14 11:27:57;;;;;;;5.10;1.80;;;;;;;22.32;37.42;100041.38;217586;1259;139420;-68
2023/05/14 11:32:59;;;;;;;;;;;;;;;22.37;37.61;100038.23;218636;1259;139322;-68
2023/05/14 11:38:03;;;;;;;1.60;1.50;;;;;;;22.48;37.17;100038.11;219337;1258;125037;-68
2023/05/14 11:43:13;;;;;;;1.60;1.50;;;;;;;22.08;37.20;100033.21;218916;1258;140245;-67
2023/05/14 11:48:23;;;;;;;1.80;1.20;;;;;;;22.20;37.63;100031.33;218376;1258;139666;-68
2023/05/14 11:53:29;;;;;;;1.70;1.60;;;;;;;22.78;37.62;100029.90;220079;1258;139292;-67
2023/05/14 11:58:33;;;;;;;1.40;1.30;;;;;;;23.33;36.87;100019.73;217461;1258;140241;-66
2023/05/14 12:03:35;;;;;;;1.20;1.10;;;;;;;23.70;36.74;100018.10;219062;1258;140083;-68
2023/05/14 12:08:41;;;;;;;1.40;1.00;;;;;;;23.42;35.31;100019.05;216875;1260;139010;-68
2023/05/14 12:13:44;;;;;;;2.70;1.40;;;;;;;23.11;35.67;100026.88;219156;1258;138986;-68
2023/05/14 12:18:48;;;;;;;1.50;1.40;;;;;;;23.13;36.11;100020.23;218648;1259;140825;-68
2023/05/14 12:23:58;;;;;;;2.10;1.30;;;;;;;23.54;35.91;100006.45;218616;1259;139168;-68
2023/05/14 12:29:02;;;;;;;3.40;1.80;;;;;;;23.85;35.61;99999.38;217842;1259;140119;-68
2023/05/14 12:34:06;;;;;;;1.40;1.30;;;;;;;24.12;35.65;99983.45;217572;1262;138961;-68
2023/05/14 12:39:11;;;;;;;2.10;1.30;;;;;;;23.84;35.07;99990.03;217492;1259;138935;-67
2023/05/14 12:44:15;;;;;;;1.80;1.10;;;;;;;23.46;34.82;99983.39;217337;1259;139791;-67
2023/05/14 12:49:18;;;;;;;1.50;1.40;;;;;;;23.15;35.50;99981.58;217755;1259;139304;-68
2023/05/14 12:54:21;;;;;;;9.20;1.70;;;;;;;22.92;35.43;99982.23;217045;1262;139531;-67
2023/05/14 12:59:23;;;;;;;3.10;1.70;;;;;;;22.60;35.39;99977.70;217787;1258;139261;-67
2023/05/14 13:04:26;;;;;;;5.10;2.10;;;;;;;22.29;35.68;99970.63;218625;1259;140024;-66
2023/05/14 13:09:30;;;;;;;1.10;1.10;;;;;;;22.29;36.03;99965.71;217983;1259;139245;-65
2023/05/14 13:14:33;;;;;;;1.40;1.30;;;;;;;22.37;36.47;99958.15;218392;1259;138614;-66
2023/05/14 13:19:37;;;;;;;2.90;1.80;;;;;;;22.19;36.22;99965.48;217204;1259;139140;-66
2023/05/14 13:24:41;;;;;;;1.20;1.10;;;;;;;22.09;36.62;99953.41;217945;1262;138843;-66
2023/05/14 13:29:43;;;;;;;2.00;1.80;;;;;;;22.26;36.68;99942.30;217702;1259;139043;-67
2023/05/14 13:34:47;;;;;;;1.10;1.10;;;;;;;22.37;36.47;99937.80;218312;1259;139649;-67
2023/05/14 13:39:51;;;;;;;1.70;1.60;;;;;;;22.32;36.23;99933.17;217512;1262;138780;-68
2023/05/14 13:44:58;;;;;;;1.60;1.40;;;;;;;22.24;36.55;99925.77;218054;1261;141694;-69
2023/05/14 13:50:02;;;;;;;1.60;1.30;;;;;;;22.12;36.98;99918.17;218649;1259;139825;-70
2023/05/14 13:55:07;;;;;;;1.50;1.40;;;;;;;22.11;37.19;99923.13;217707;1263;139265;-68
2023/05/14 14:00:13;;;;;;;2.50;1.30;;;;;;;21.85;36.88;99915.23;217828;1259;139319;-67
2023/05/14 14:05:18;;;;;;;1.30;1.20;;;;;;;21.50;36.81;99909.45;218095;1259;139525;-69
2023/05/14 14:10:21;;;;;;;1.40;1.30;;;;;;;21.38;37.02;99906.40;218496;1259;139874;-67
2023/05/14 14:15:25;;;;;;;1.30;1.30;;;;;;;21.35;37.49;99905.17;218203;1259;139286;-68
2023/05/14 14:20:30;;;;;;;4.10;1.30;;;;;;;21.43;37.87;99898.74;218509;1258;139143;-67
2023/05/14 14:25:34;;;;;;;1.90;1.80;;;;;;;21.48;37.63;99894.13;217043;1259;140328;-69
2023/05/14 14:30:43;;;;;;;1.70;1.60;;;;;;;21.60;37.80;99891.39;216897;1259;139945;-70
2023/05/14 14:35:51;;;;;;;1.60;1.30;;;;;;;21.70;37.77;99889.16;220174;1259;138934;-70
2023/05/14 14:40:54;;;;;;;3.20;2.00;;;;;;;21.88;38.34;99886.33;220114;1259;139519;-69
2023/05/14 14:45:58;;;;;;;1.70;1.60;;;;;;;21.98;38.24;99881.23;219955;1259;139617;-68
2023/05/14 14:51:05;;;;;;;1.60;1.50;;;;;;;21.98;38.10;99874.91;220062;1258;141052;-69
2023/05/14 14:56:08;;;;;;;1.70;1.60;;;;;;;21.78;37.72;99869.13;220084;1259;140375;-70
2023/05/14 15:01:15;;;;;;;1.50;1.40;;;;;;;21.63;37.97;99865.42;220005;1259;139258;-69
2023/05/14 15:11:49;;;;;;;1.70;1.60;;;;;;;21.58;38.63;99853.23;214653;1299;636634;-67
2023/05/14 15:16:54;;;;;;;1.60;1.50;;;;;;;21.40;38.68;99843.48;216592;1272;138802;-66
2023/05/14 15:22:01;;;;;;;3.40;1.70;;;;;;;21.35;38.90;99843.98;217053;1267;891708;-67
2023/05/14 15:27:06;;;;;;;1.80;1.60;;;;;;;21.40;38.71;99839.52;216832;1265;138680;-66
2023/05/14 15:32:12;;;;;;;2.30;1.70;;;;;;;21.43;38.41;99838.66;217903;1266;138595;-67
2023/05/14 15:37:16;;;;;;;1.70;1.60;;;;;;;21.21;38.14;99838.17;217130;1267;139954;-71
2023/05/14 15:42:21;;;;;;;2.20;1.90;;;;;;;21.01;38.41;99836.08;218558;1266;138802;-66
2023/05/14 15:47:26;;;;;;;2.30;2.10;;;;;;;20.94;38.66;99833.34;218903;1266;139182;-69
2023/05/14 15:52:30;;;;;;;7.20;2.40;;;;;;;20.88;38.86;99831.98;219376;1266;138523;-69
2023/05/14 15:57:35;;;;;;;2.40;2.20;;;;;;;20.81;39.09;99823.30;219429;1266;139512;-69
2023/05/14 16:02:40;;;;;;;8.10;2.00;;;;;;;20.70;39.11;99812.46;218366;1267;138475;-67
2023/05/14 16:07:47;;;;;;;;;;;;;;;20.69;39.34;99804.08;217404;1267;138726;-67
2023/05/14 16:12:53;;;;;;;3.30;2.00;;;;;;;20.64;39.63;99793.17;217178;1267;125587;-66
2023/05/14 16:18:00;;;;;;;2.40;2.10;;;;;;;20.63;39.64;99783.17;218182;1267;139428;-68
2023/05/14 16:23:05;;;;;;;3.00;2.30;;;;;;;20.70;40.51;99781.91;217694;1267;138384;-69
2023/05/14 16:28:11;;;;;;;3.40;2.40;;;;;;;20.73;40.29;99776.69;216856;1266;138826;-67
2023/05/14 16:33:16;;;;;;;2.40;2.30;;;;;;;20.61;40.29;99768.37;217304;1267;138336;-68
2023/05/14 16:38:31;;;;;;;2.20;2.10;;;;;;;20.46;40.56;99762.23;216880;1267;138339;-68
2023/05/14 16:43:40;;;;;;;4.40;2.70;;;;;;;20.42;40.91;99767.86;216461;1266;138430;-68
2023/05/14 16:48:49;;;;;;;4.40;3.30;;;;;;;20.32;40.83;99773.27;217043;1266;138467;-67
2023/05/14 16:53:55;;;;;;;2.00;1.80;;;;;;;20.25;41.33;99763.35;216609;1267;139605;-66
2023/05/14 16:59:00;;;;;;;4.70;3.30;;;;;;;20.18;41.16;99762.94;217611;1266;139014;-68
2023/05/14 17:04:07;;;;;;;;;;;;;;;20.07;41.44;99765.24;216673;1266;138711;-68
2023/05/14 17:09:13;;;;;;;5.40;3.30;;;;;;;19.97;42.95;99758.37;218617;1266;126919;-68
2023/05/14 17:14:19;;;;;;;3.90;3.60;;;;;;;19.92;43.59;99756.98;217670;1266;138943;-68
2023/05/14 17:19:24;;;;;;;8.60;4.00;;;;;;;19.87;43.84;99756.98;218054;1266;138756;-67
2023/05/14 17:24:33;;;;;;;8.60;4.30;;;;;;;19.78;44.00;99753.01;217104;1270;139149;-67
2023/05/14 17:29:39;;;;;;;4.70;4.10;;;;;;;19.67;44.65;99746.45;216632;1267;138429;-66
2023/05/14 17:34:45;;;;;;;6.10;4.20;;;;;;;19.54;45.29;99745.86;218493;1266;138685;-67
2023/05/14 17:39:53;;;;;;;4.60;4.20;;;;;;;19.41;45.47;99738.77;218707;1267;139394;-67
2023/05/14 17:44:58;;;;;;;4.90;3.60;;;;;;;19.25;45.92;99736.73;219105;1266;138888;-66
2023/05/14 17:50:04;;;;;;;6.80;4.40;;;;;;;19.08;46.51;99745.40;219277;1266;139291;-66
2023/05/14 17:55:08;;;;;;;7.30;5.10;;;;;;;18.91;46.97;99742.23;218369;1266;141957;-69
2023/05/14 18:00:13;;;;;;;7.30;5.70;;;;;;;18.74;47.32;99739.27;216323;1267;139716;-66
2023/05/14 18:05:17;;;;;;;7.30;5.10;;;;;;;18.57;47.58;99738.66;218138;1264;138411;-69
2023/05/14 18:10:24;;;;;;;10.70;5.00;;;;;;;18.36;48.36;99736.82;218381;1263;141002;-67
2023/05/14 18:15:30;;;;;;;7.80;5.50;;;;;;;18.18;49.27;99736.90;217024;1263;139997;-65
2023/05/14 18:20:37;;;;;;;4.60;4.20;;;;;;;17.98;49.76;99737.67;216811;1267;138884;-70
2023/05/14 18:25:41;;;;;;;12.80;5.60;;;;;;;17.77;50.56;99741.55;216791;1267;139405;-69
2023/05/14 18:30:45;;;;;;;10.80;5.60;;;;;;;17.61;51.22;99741.63;216595;1264;139304;-70
2023/05/14 18:35:50;;;;;;;8.40;5.50;;;;;;;17.44;51.58;99739.66;217717;1263;138716;-71
2023/05/14 18:40:54;;;;;;;5.30;4.60;;;;;;;17.28;52.24;99741.34;216884;1263;138511;-70
2023/05/14 18:46:01;;;;;;;10.70;5.90;;;;;;;17.12;52.63;99739.96;216541;1263;139143;-69
2023/05/14 18:51:06;;;;;;;12.00;5.30;;;;;;;16.98;53.12;99737.89;216677;1264;140108;-72
2023/05/14 18:56:10;;;;;;;14.60;6.30;;;;;;;16.82;53.63;99738.16;216950;1264;140080;-69
2023/05/14 19:01:15;;;;;;;9.30;4.90;;;;;;;16.68;54.22;99734.71;217066;1263;138988;-71
2023/05/14 19:06:19;;;;;;;7.80;5.60;;;;;;;16.55;54.82;99727.04;216762;1264;138932;-70
2023/05/14 19:11:24;;;;;;;7.70;5.40;;;;;;;16.42;55.37;99723.96;218007;1263;139782;-70
2023/05/14 19:16:33;;;;;;;14.50;6.40;;;;;;;16.34;55.99;99728.02;216667;1267;245663;-69
2023/05/14 19:21:37;;;;;;;8.70;5.40;;;;;;;16.23;56.30;99727.77;216568;1263;140022;-68
2023/05/14 19:26:42;;;;;;;9.00;5.60;;;;;;;16.11;56.80;99720.80;216694;1267;139586;-68
2023/05/14 19:31:46;;;;;;;10.80;6.20;;;;;;;16.01;56.96;99719.45;217926;1260;139392;-69
2023/05/14 19:36:51;;;;;;;11.30;6.40;;;;;;;15.90;57.06;99723.45;217776;1260;138876;-67
2023/05/14 19:41:55;;;;;;;13.20;6.70;;;;;;;15.79;57.07;99714.59;217216;1259;138781;-69
2023/05/14 19:47:00;;;;;;;13.40;7.00;;;;;;;15.68;57.17;99709.90;219412;1259;140525;-68
2023/05/14 19:52:05;;;;;;;10.70;7.00;;;;;;;15.55;57.37;99707.42;217758;1260;139262;-69
2023/05/14 19:57:10;;;;;;;10.10;6.10;;;;;;;15.44;57.54;99703.69;219878;1259;139443;-68
2023/05/14 20:02:17;;;;;;;12.70;7.50;;;;;;;15.37;57.81;99694.48;218274;1260;141810;-67
2023/05/14 20:07:23;;;;;;;23.70;7.50;;;;;;;15.28;57.97;99686.64;218926;1259;140721;-68
2023/05/14 20:12:29;;;;;;;15.10;9.40;;;;;;;15.23;58.27;99681.33;218896;1259;139347;-72
2023/05/14 20:17:34;;;;;;;16.70;8.10;;;;;;;15.17;58.57;99673.73;217683;1259;139605;-78
2023/05/14 20:22:38;;;;;;;11.30;7.20;;;;;;;15.12;58.61;99669.10;217397;1260;139076;-76
2023/05/14 20:27:44;;;;;;;13.50;7.00;;;;;;;15.05;58.97;99656.09;217377;1259;139586;-71
2023/05/14 20:32:50;;;;;;;11.40;7.80;;;;;;;15.03;59.18;99652.81;217220;1262;139774;-68
2023/05/14 20:37:55;;;;;;;7.60;6.70;;;;;;;14.99;59.28;99648.56;218342;1259;140505;-68
2023/05/14 20:43:00;;;;;;;14.20;7.30;;;;;;;14.97;59.55;99639.93;217059;1259;138942;-69
2023/05/14 20:48:08;;;;;;;16.20;8.10;;;;;;;14.96;59.70;99633.81;217357;1260;139877;-70
2023/05/14 20:53:13;;;;;;;9.70;7.60;;;;;;;14.92;59.62;99631.06;217417;1260;138948;-71
2023/05/14 20:58:17;;;;;;;9.00;6.60;;;;;;;14.88;59.59;99627.20;218073;1259;139030;-71
2023/05/14 21:03:22;;;;;;;7.60;6.40;;;;;;;14.82;59.96;99624.33;217771;1262;139192;-67
2023/05/14 21:08:27;;;;;;;15.30;7.70;;;;;;;14.76;59.80;99617.12;217223;1262;140987;-68
2023/05/14 21:13:31;;;;;;;7.80;7.00;;;;;;;14.71;60.07;99606.73;217664;1259;139265;-67
2023/05/14 21:18:36;;;;;;;9.50;7.00;;;;;;;14.66;60.07;99600.84;218257;1260;140441;-66
2023/05/14 21:23:40;;;;;;;8.90;6.50;;;;;;;14.61;60.21;99589.73;217884;1259;141240;-68
2023/05/14 21:28:44;;;;;;;6.70;5.50;;;;;;;14.58;60.06;99586.44;218221;1259;139406;-72
2023/05/14 21:33:49;;;;;;;7.10;6.40;;;;;;;14.55;60.23;99577.75;218328;1262;138603;-68
2023/05/14 21:38:54;;;;;;;7.60;5.60;;;;;;;14.55;60.32;99572.65;219991;1259;139625;-68
2023/05/14 21:43:58;;;;;;;7.50;6.80;;;;;;;14.54;60.49;99562.82;217158;1260;138486;-67
2023/05/14 21:49:02;;;;;;;5.00;4.50;;;;;;;14.53;60.50;99562.23;218418;1259;139950;-69
2023/05/14 21:54:06;;;;;;;6.60;5.50;;;;;;;14.53;60.55;99556.71;219621;1259;138821;-67
2023/05/14 21:59:11;;;;;;;7.00;5.00;;;;;;;14.51;60.40;99547.64;218097;1260;139122;-68
2023/05/14 22:04:15;;;;;;;8.40;5.60;;;;;;;14.48;60.36;99540.98;218473;1259;139099;-68
2023/05/14 22:09:20;;;;;;;5.70;5.20;;;;;;;14.46;60.46;99532.81;218087;1260;138870;-68
2023/05/14 22:14:25;;;;;;;5.50;4.80;;;;;;;14.42;60.54;99526.35;218044;1259;138857;-68
2023/05/14 22:19:30;;;;;;;9.10;6.70;;;;;;;14.38;60.77;99525.21;217905;1259;138365;-68
2023/05/14 22:24:34;;;;;;;5.90;5.30;;;;;;;14.35;60.87;99514.21;218529;1259;139401;-69
2023/05/14 22:29:38;;;;;;;12.70;6.20;;;;;;;14.33;60.90;99511.69;217827;1260;140663;-69
2023/05/14 22:34:42;;;;;;;5.60;5.10;;;;;;;14.31;60.86;99503.10;217791;1260;140028;-69
2023/05/14 22:39:46;;;;;;;9.60;5.20;;;;;;;14.29;60.71;99493.98;217534;1259;139263;-68
2023/05/14 22:44:52;;;;;;;7.00;4.90;;;;;;;14.25;60.89;99503.52;217303;1259;139337;-68
2023/05/14 22:49:58;;;;;;;5.60;5.10;;;;;;;14.26;60.37;99513.11;219005;1259;139493;-67
2023/05/14 22:55:03;;;;;;;4.70;4.00;;;;;;;14.28;60.33;99511.78;217931;1260;140117;-67
2023/05/14 23:00:07;;;;;;;5.50;4.60;;;;;;;14.30;60.05;99506.38;218183;1259;139775;-67
2023/05/14 23:05:13;;;;;;;5.80;4.70;;;;;;;14.28;59.85;99493.88;217355;1259;139234;-67
2023/05/14 23:10:17;;;;;;;3.50;3.10;;;;;;;14.31;59.03;99488.95;218436;1262;139905;-67